createdAt,value
2022-11-05T00:00:31.517Z,99912.52
2022-11-05T00:03:28.171Z,99909.17
2022-11-05T00:06:15.610Z,99909.70
2022-11-05T00:09:02.163Z,99908.73
2022-11-05T00:11:49.582Z,99906.63
2022-11-05T00:14:36.708Z,99913.27
2022-11-05T00:17:05.281Z,99908.73
2022-11-05T00:19:33.785Z,99912.08
2022-11-05T00:22:20.737Z,99913.10
2022-11-05T00:25:08.879Z,99917.53
2022-11-05T00:27:37.385Z,99909.46
2022-11-05T00:30:09.143Z,99913.48
2022-11-05T00:32:38.063Z,99912.98
2022-11-05T00:35:10.551Z,99912.69
2022-11-05T00:37:39.380Z,99912.56
2022-11-05T00:40:11.181Z,99913.30
2022-11-05T00:43:01.115Z,99911.36
2022-11-05T00:45:30.988Z,99910.35
2022-11-05T00:48:18.184Z,99899.08
2022-11-05T00:50:47.104Z,99889.31
2022-11-05T00:53:16.098Z,99887.02
2022-11-05T00:55:45.467Z,99889.17
2022-11-05T00:58:15.983Z,99895.08
2022-11-05T01:00:48.613Z,99892.80
2022-11-05T01:03:19.205Z,99891.14
2022-11-05T01:05:49.299Z,99891.05
2022-11-05T01:08:20.145Z,99894.27
2022-11-05T01:10:52.263Z,99890.96
2022-11-05T01:13:22.175Z,99881.80
2022-11-05T01:15:52.332Z,99883.16
2022-11-05T01:18:22.026Z,99883.11
2022-11-05T01:20:51.459Z,99889.40
2022-11-05T01:23:20.854Z,99893.33
2022-11-05T01:25:49.909Z,99893.77
2022-11-05T01:28:18.508Z,99895.11
2022-11-05T01:30:47.400Z,99898.05
2022-11-05T01:33:15.909Z,99903.36
2022-11-05T01:35:44.962Z,99900.55
2022-11-05T01:38:13.862Z,99900.66
2022-11-05T01:40:44.060Z,99900.54
2022-11-05T01:43:15.996Z,99903.38
2022-11-05T01:45:46.068Z,99905.41
2022-11-05T01:48:17.173Z,99913.23
2022-11-05T01:50:49.816Z,99920.23
2022-11-05T01:53:23.180Z,99928.61
2022-11-05T01:55:57.589Z,99927.38
2022-11-05T01:58:31.011Z,99927.67
2022-11-05T02:00:59.899Z,99932.22
2022-11-05T02:03:29.500Z,99928.91
2022-11-05T02:05:59.468Z,99930.35
2022-11-05T02:08:43.719Z,99931.24
2022-11-05T02:11:17.566Z,99929.64
2022-11-05T02:13:46.838Z,99930.33
2022-11-05T02:16:24.788Z,99931.44
2022-11-05T02:18:59.382Z,99925.16
2022-11-05T02:21:45.755Z,99920.53
2022-11-05T02:24:30.813Z,99920.40
2022-11-05T02:27:12.742Z,99922.82
2022-11-05T02:30:09.477Z,99925.18
2022-11-05T02:33:10.275Z,99931.31
2022-11-05T02:35:52.312Z,99929.73
2022-11-05T02:38:30.752Z,99937.64
2022-11-05T02:41:06.627Z,99929.92
2022-11-05T02:43:59.471Z,99924.68
2022-11-05T02:46:37.166Z,99931.86
2022-11-05T02:49:11.947Z,99939.73
2022-11-05T02:51:46.780Z,99935.41
2022-11-05T02:54:17.797Z,99939.61
2022-11-05T02:56:49.324Z,99942.04
2022-11-05T02:59:17.701Z,99946.63
2022-11-05T03:01:47.571Z,99952.74
2022-11-05T03:04:17.888Z,99956.06
2022-11-05T03:07:00.477Z,99961.38
2022-11-05T03:09:43.731Z,99959.41
2022-11-05T03:12:21.504Z,99955.56
2022-11-05T03:14:56.400Z,99957.77
2022-11-05T03:17:37.154Z,99958.84
2022-11-05T03:20:14.937Z,99963.23
2022-11-05T03:22:49.716Z,99962.19
2022-11-05T03:25:22.005Z,99958.52
2022-11-05T03:27:54.632Z,99960.98
2022-11-05T03:30:24.873Z,99956.92
2022-11-05T03:32:59.070Z,99962.80
2022-11-05T03:35:30.434Z,99968.67
2022-11-05T03:38:02.600Z,99967.31
2022-11-05T03:40:33.387Z,99968.91
2022-11-05T03:43:05.714Z,99964.25
2022-11-05T03:45:37.575Z,99965.10
2022-11-05T03:48:07.827Z,99971.52
2022-11-05T03:50:41.483Z,99968.14
2022-11-05T03:53:15.714Z,99976.86
2022-11-05T03:55:47.354Z,99978.67
2022-11-05T03:58:16.297Z,99974.64
2022-11-05T04:00:45.078Z,99982.35
2022-11-05T04:03:14.901Z,99981.84
2022-11-05T04:05:43.940Z,99991.92
2022-11-05T04:08:30.636Z,99997.52
2022-11-05T04:11:17.354Z,100004.56
2022-11-05T04:13:46.419Z,100013.35
2022-11-05T04:16:33.295Z,100014.96
2022-11-05T04:19:01.836Z,100029.92
2022-11-05T04:21:48.897Z,100037.77
2022-11-05T04:24:17.304Z,100031.22
2022-11-05T04:26:46.918Z,100031.59
2022-11-05T04:29:33.411Z,100028.11
2022-11-05T04:32:02.401Z,100028.86
2022-11-05T04:34:30.866Z,100034.66
2022-11-05T04:36:59.309Z,100037.87
2022-11-05T04:39:28.093Z,100038.89
2022-11-05T04:41:56.604Z,100028.77
2022-11-05T04:44:24.986Z,100031.36
2022-11-05T04:46:53.523Z,100028.45
2022-11-05T04:49:21.972Z,100034.95
2022-11-05T04:51:50.598Z,100044.14
2022-11-05T04:54:19.293Z,100047.06
2022-11-05T04:56:47.702Z,100049.86
2022-11-05T04:59:16.160Z,100053.69
2022-11-05T05:01:44.596Z,100058.59
2022-11-05T05:04:13.977Z,100061.74
2022-11-05T05:06:42.595Z,100062.35
2022-11-05T05:09:12.542Z,100062.91
2022-11-05T05:11:41.032Z,100070.09
2022-11-05T05:14:10.345Z,100074.73
2022-11-05T05:16:39.129Z,100077.09
2022-11-05T05:19:07.489Z,100079.14
2022-11-05T05:21:39.030Z,100086.41
2022-11-05T05:24:09.818Z,100089.00
2022-11-05T05:26:39.942Z,100087.80
2022-11-05T05:29:09.411Z,100091.09
2022-11-05T05:31:38.248Z,100098.11
2022-11-05T05:34:08.261Z,100094.92
2022-11-05T05:36:38.373Z,100098.96
2022-11-05T05:39:07.206Z,100101.83
2022-11-05T05:41:35.746Z,100102.75
2022-11-05T05:44:06.188Z,100107.02
2022-11-05T05:46:34.677Z,100109.64
2022-11-05T05:49:06.668Z,100105.91
2022-11-05T05:51:40.114Z,100108.42
2022-11-05T05:54:09.910Z,100103.13
2022-11-05T05:56:38.336Z,100108.92
2022-11-05T05:59:07.577Z,100112.27
2022-11-05T06:01:36.802Z,100112.90
2022-11-05T06:04:05.719Z,100116.34
2022-11-05T06:06:34.326Z,100111.52
2022-11-05T06:09:05.366Z,100113.39
2022-11-05T06:11:33.849Z,100110.80
2022-11-05T06:14:02.761Z,100113.05
2022-11-05T06:16:35.318Z,100113.92
2022-11-05T06:19:04.721Z,100115.96
2022-11-05T06:21:33.232Z,100123.59
2022-11-05T06:24:02.727Z,100129.44
2022-11-05T06:26:32.035Z,100129.73
2022-11-05T06:29:00.569Z,100135.80
2022-11-05T06:31:30.023Z,100138.99
2022-11-05T06:33:59.001Z,100142.35
2022-11-05T06:36:27.506Z,100141.67
2022-11-05T06:38:56.280Z,100145.84
2022-11-05T06:41:24.725Z,100142.85
2022-11-05T06:43:53.235Z,100150.77
2022-11-05T06:46:21.650Z,100152.39
2022-11-05T06:48:50.977Z,100155.00
2022-11-05T06:51:19.480Z,100152.84
2022-11-05T06:53:48.409Z,100144.65
2022-11-05T06:56:17.090Z,100142.43
2022-11-05T06:58:45.506Z,100140.02
2022-11-05T07:01:14.025Z,100137.52
2022-11-05T07:03:44.193Z,100143.66
2022-11-05T07:06:12.575Z,100149.59
2022-11-05T07:08:41.039Z,100150.80
2022-11-05T07:11:09.481Z,100161.14
2022-11-05T07:13:37.903Z,100168.20
2022-11-05T07:16:08.345Z,100168.55
2022-11-05T07:18:37.263Z,100161.28
2022-11-05T07:21:06.281Z,100160.90
2022-11-05T07:23:34.703Z,100165.98
2022-11-05T07:26:03.425Z,100165.95
2022-11-05T07:28:31.901Z,100161.58
2022-11-05T07:31:00.560Z,100159.19
2022-11-05T07:33:35.273Z,100162.13
2022-11-05T07:36:05.928Z,100164.94
2022-11-05T07:38:37.819Z,100174.34
2022-11-05T07:41:06.822Z,100177.25
2022-11-05T07:43:38.155Z,100181.84
2022-11-05T07:46:11.147Z,100176.21
2022-11-05T07:48:42.399Z,100185.64
2022-11-05T07:51:11.049Z,100193.67
2022-11-05T07:53:44.914Z,100197.98
2022-11-05T07:56:14.589Z,100202.88
2022-11-05T07:58:43.198Z,100199.45
2022-11-05T08:01:11.716Z,100200.00
2022-11-05T08:03:40.259Z,100202.58
2022-11-05T08:06:09.029Z,100205.47
2022-11-05T08:08:37.519Z,100206.61
2022-11-05T08:11:07.311Z,100211.64
2022-11-05T08:13:36.245Z,100221.97
2022-11-05T08:16:06.220Z,100223.89
2022-11-05T08:18:35.562Z,100223.30
2022-11-05T08:21:05.422Z,100224.40
2022-11-05T08:23:34.111Z,100222.27
2022-11-05T08:26:04.009Z,100219.94
2022-11-05T08:28:33.120Z,100214.43
2022-11-05T08:31:01.703Z,100219.34
2022-11-05T08:33:31.099Z,100224.69
2022-11-05T08:36:03.510Z,100229.20
2022-11-05T08:38:32.902Z,100224.70
2022-11-05T08:41:01.921Z,100229.87
2022-11-05T08:43:30.666Z,100232.98
2022-11-05T08:46:01.938Z,100234.44
2022-11-05T08:48:30.411Z,100236.69
2022-11-05T08:51:01.480Z,100237.30
2022-11-05T08:53:31.356Z,100238.98
2022-11-05T08:56:00.184Z,100234.26
2022-11-05T08:58:28.801Z,100234.06
2022-11-05T09:01:03.509Z,100231.73
2022-11-05T09:03:33.512Z,100236.08
2022-11-05T09:06:02.236Z,100245.79
2022-11-05T09:08:30.834Z,100256.36
2022-11-05T09:10:59.734Z,100265.41
2022-11-05T09:13:28.348Z,100268.17
2022-11-05T09:15:59.147Z,100261.42
2022-11-05T09:18:28.913Z,100258.84
2022-11-05T09:20:57.471Z,100262.77
2022-11-05T09:23:26.444Z,100263.65
2022-11-05T09:25:55.227Z,100270.75
2022-11-05T09:28:24.965Z,100268.56
2022-11-05T09:30:54.065Z,100271.11
2022-11-05T09:33:24.481Z,100269.80
2022-11-05T09:35:53.658Z,100270.60
2022-11-05T09:38:23.091Z,100274.13
2022-11-05T09:40:57.550Z,100281.72
2022-11-05T09:43:32.073Z,100285.54
2022-11-05T09:46:03.855Z,100285.74
2022-11-05T09:48:34.189Z,100291.42
2022-11-05T09:51:05.407Z,100294.92
2022-11-05T09:53:37.761Z,100303.05
2022-11-05T09:56:10.931Z,100304.21
2022-11-05T09:58:42.993Z,100300.95
2022-11-05T10:01:15.982Z,100297.42
2022-11-05T10:03:49.971Z,100301.11
2022-11-05T10:06:20.853Z,100305.10
2022-11-05T10:08:52.844Z,100310.73
2022-11-05T10:11:25.066Z,100318.23
2022-11-05T10:13:58.814Z,100321.46
2022-11-05T10:16:30.764Z,100330.15
2022-11-05T10:19:02.535Z,100333.64
2022-11-05T10:21:59.522Z,100338.70
2022-11-05T10:24:21.422Z,100343.55
2022-11-05T10:26:51.922Z,100347.48
2022-11-05T10:29:25.093Z,100346.58
2022-11-05T10:31:54.602Z,100347.75
2022-11-05T10:34:28.598Z,100349.65
2022-11-05T10:36:56.458Z,100345.12
2022-11-05T10:39:27.111Z,100342.08
2022-11-05T10:42:20.143Z,100349.49
2022-11-05T10:44:56.381Z,100350.59
2022-11-05T10:47:39.638Z,100355.91
2022-11-05T10:50:11.869Z,100353.76
2022-11-05T10:52:45.928Z,100356.05
2022-11-05T10:55:19.107Z,100359.36
2022-11-05T10:57:48.821Z,100355.56
2022-11-05T11:00:25.234Z,100357.29
2022-11-05T11:02:55.773Z,100353.54
2022-11-05T11:05:27.250Z,100357.31
2022-11-05T11:08:00.247Z,100357.33
2022-11-05T11:10:33.706Z,100364.52
2022-11-05T11:13:03.109Z,100364.73
2022-11-05T11:15:32.618Z,100366.77
2022-11-05T11:18:23.237Z,100367.53
2022-11-05T11:20:52.046Z,100367.56
2022-11-05T11:23:21.107Z,100366.92
2022-11-05T11:25:54.096Z,100365.98
2022-11-05T11:28:29.024Z,100359.45
2022-11-05T11:31:04.982Z,100360.42
2022-11-05T11:33:35.242Z,100363.80
2022-11-05T11:36:04.266Z,100369.80
2022-11-05T11:38:35.173Z,100373.60
2022-11-05T11:41:16.195Z,100375.61
2022-11-05T11:43:45.659Z,100375.27
2022-11-05T11:46:16.710Z,100376.59
2022-11-05T11:48:47.801Z,100378.73
2022-11-05T11:51:30.729Z,100375.63
2022-11-05T11:54:05.449Z,100381.03
2022-11-05T11:56:45.768Z,100385.98
2022-11-05T11:59:40.463Z,100386.83
2022-11-05T12:02:30.111Z,100384.98
2022-11-05T12:05:22.424Z,100392.46
2022-11-05T12:07:57.398Z,100397.27
2022-11-05T12:10:51.817Z,100402.21
2022-11-05T12:13:54.588Z,100402.25
2022-11-05T12:16:30.715Z,100406.96
2022-11-05T12:19:12.705Z,100410.16
2022-11-05T12:21:53.334Z,100414.83
2022-11-05T12:24:45.039Z,100418.45
2022-11-05T12:27:27.601Z,100418.60
2022-11-05T12:30:10.318Z,100414.67
2022-11-05T12:32:49.463Z,100413.12
2022-11-05T12:35:34.764Z,100415.64
2022-11-05T12:38:14.041Z,100415.52
2022-11-05T12:41:06.100Z,100414.66
2022-11-05T12:43:46.371Z,100413.17
2022-11-05T12:46:25.318Z,100410.75
2022-11-05T12:49:31.071Z,100413.62
2022-11-05T12:52:17.652Z,100418.52
2022-11-05T12:54:58.405Z,100419.17
2022-11-05T12:57:28.003Z,100421.36
2022-11-05T13:00:06.845Z,100418.87
2022-11-05T13:02:42.481Z,100419.65
2022-11-05T13:05:15.859Z,100415.59
2022-11-05T13:07:49.951Z,100421.23
2022-11-05T13:10:25.593Z,100426.49
2022-11-05T13:13:00.469Z,100427.10
2022-11-05T13:15:32.796Z,100427.45
2022-11-05T13:18:04.848Z,100423.09
2022-11-05T13:20:36.290Z,100424.80
2022-11-05T13:23:17.974Z,100421.83
2022-11-05T13:25:52.175Z,100423.03
2022-11-05T13:28:32.714Z,100420.27
2022-11-05T13:31:03.577Z,100416.56
2022-11-05T13:33:34.843Z,100417.64
2022-11-05T13:36:24.854Z,100426.27
2022-11-05T13:38:59.448Z,100437.67
2022-11-05T13:41:36.112Z,100449.30
2022-11-05T13:44:18.792Z,100453.27
2022-11-05T13:47:15.621Z,100457.41
2022-11-05T13:50:17.852Z,100457.39
2022-11-05T13:52:57.804Z,100466.91
2022-11-05T13:55:41.871Z,100470.05
2022-11-05T13:58:23.276Z,100471.89
2022-11-05T14:01:01.273Z,100472.20
2022-11-05T14:03:30.378Z,100473.11
2022-11-05T14:06:03.490Z,100476.44
2022-11-05T14:08:36.400Z,100485.34
2022-11-05T14:11:07.319Z,100491.80
2022-11-05T14:13:37.962Z,100493.52
2022-11-05T14:16:08.763Z,100501.94
2022-11-05T14:18:43.270Z,100503.91
2022-11-05T14:21:48.313Z,100505.96
2022-11-05T14:24:23.698Z,100511.27
2022-11-05T14:27:24.076Z,100510.95
2022-11-05T14:29:53.291Z,100514.77
2022-11-05T14:32:27.539Z,100514.85
2022-11-05T14:35:03.283Z,100517.59
2022-11-05T14:37:33.785Z,100520.09
2022-11-05T14:40:25.179Z,100520.56
2022-11-05T14:42:56.114Z,100524.05
2022-11-05T14:45:28.903Z,100528.71
2022-11-05T14:47:59.657Z,100530.39
2022-11-05T14:50:35.887Z,100530.02
2022-11-05T14:53:11.741Z,100529.55
2022-11-05T14:55:42.385Z,100528.05
2022-11-05T14:58:29.750Z,100529.67
2022-11-05T15:00:59.414Z,100531.79
2022-11-05T15:04:10.696Z,100535.59
2022-11-05T15:06:39.221Z,100539.58
2022-11-05T15:09:31.742Z,100543.77
2022-11-05T15:12:13.645Z,100543.99
2022-11-05T15:14:55.092Z,100545.35
2022-11-05T15:17:29.322Z,100548.10
2022-11-05T15:20:07.869Z,100546.20
2022-11-05T15:22:41.716Z,100547.43
2022-11-05T15:25:17.827Z,100553.73
2022-11-05T15:28:04.889Z,100555.13
2022-11-05T15:30:33.658Z,100559.21
2022-11-05T15:33:18.160Z,100560.73
2022-11-05T15:35:47.136Z,100568.50
2022-11-05T15:38:30.316Z,100568.96
2022-11-05T15:41:00.754Z,100569.44
2022-11-05T15:43:29.818Z,100567.30
2022-11-05T15:46:03.485Z,100568.77
2022-11-05T15:48:32.314Z,100570.59
2022-11-05T15:51:01.291Z,100570.67
2022-11-05T15:54:16.160Z,100574.50
2022-11-05T15:56:48.549Z,100569.63
2022-11-05T15:59:19.006Z,100565.61
2022-11-05T16:01:48.994Z,100571.89
2022-11-05T16:04:19.874Z,100580.52
2022-11-05T16:06:55.643Z,100582.09
2022-11-05T16:09:26.170Z,100583.64
2022-11-05T16:12:12.354Z,100584.52
2022-11-05T16:14:41.521Z,100589.94
2022-11-05T16:17:21.335Z,100594.78
2022-11-05T16:19:50.894Z,100598.94
2022-11-05T16:22:19.666Z,100596.56
2022-11-05T16:24:50.510Z,100597.54
2022-11-05T16:27:20.953Z,100599.05
2022-11-05T16:29:52.138Z,100603.94
2022-11-05T16:32:28.586Z,100604.85
2022-11-05T16:35:00.322Z,100602.50
2022-11-05T16:37:31.526Z,100610.31
2022-11-05T16:40:01.278Z,100609.20
2022-11-05T16:42:42.268Z,100613.49
2022-11-05T16:45:14.211Z,100619.69
2022-11-05T16:47:44.706Z,100628.97
2022-11-05T16:50:19.782Z,100635.73
2022-11-05T16:52:48.700Z,100639.38
2022-11-05T16:55:18.486Z,100637.13
2022-11-05T16:57:51.090Z,100639.78
2022-11-05T17:00:21.646Z,100644.13
2022-11-05T17:02:50.543Z,100647.30
2022-11-05T17:05:22.317Z,100653.17
2022-11-05T17:07:51.377Z,100651.86
2022-11-05T17:10:20.818Z,100654.88
2022-11-05T17:12:49.953Z,100658.77
2022-11-05T17:15:21.433Z,100663.67
2022-11-05T17:17:50.945Z,100663.97
2022-11-05T17:20:38.316Z,100666.71
2022-11-05T17:23:10.520Z,100669.86
2022-11-05T17:25:39.819Z,100674.78
2022-11-05T17:28:10.166Z,100675.61
2022-11-05T17:30:41.650Z,100676.09
2022-11-05T17:33:11.510Z,100678.35
2022-11-05T17:35:41.810Z,100674.90
2022-11-05T17:38:10.708Z,100681.64
2022-11-05T17:40:39.622Z,100683.36
2022-11-05T17:43:08.853Z,100687.39
2022-11-05T17:45:42.722Z,100690.99
2022-11-05T17:48:14.578Z,100699.73
2022-11-05T17:50:43.887Z,100698.02
2022-11-05T17:53:14.913Z,100694.73
2022-11-05T17:55:44.680Z,100694.27
2022-11-05T17:58:13.444Z,100692.41
2022-11-05T18:00:43.576Z,100698.52
2022-11-05T18:03:13.078Z,100708.02
2022-11-05T18:05:42.574Z,100707.83
2022-11-05T18:08:12.969Z,100710.18
2022-11-05T18:10:42.109Z,100704.64
2022-11-05T18:13:11.072Z,100710.75
2022-11-05T18:15:40.716Z,100714.48
2022-11-05T18:18:09.670Z,100715.09
2022-11-05T18:20:38.552Z,100716.16
2022-11-05T18:23:07.128Z,100716.77
2022-11-05T18:25:35.888Z,100713.34
2022-11-05T18:28:04.640Z,100713.17
2022-11-05T18:30:33.651Z,100710.95
2022-11-05T18:33:02.352Z,100712.98
2022-11-05T18:35:31.433Z,100716.48
2022-11-05T18:37:59.980Z,100713.03
2022-11-05T18:40:28.863Z,100715.30
2022-11-05T18:42:57.362Z,100714.98
2022-11-05T18:45:29.709Z,100716.17
2022-11-05T18:47:59.864Z,100714.73
2022-11-05T18:50:28.789Z,100718.82
2022-11-05T18:52:57.632Z,100724.13
2022-11-05T18:55:26.205Z,100722.41
2022-11-05T18:57:54.680Z,100726.98
2022-11-05T19:00:23.385Z,100727.52
2022-11-05T19:02:52.445Z,100730.42
2022-11-05T19:05:30.013Z,100729.88
2022-11-05T19:07:59.324Z,100731.79
2022-11-05T19:10:29.212Z,100735.41
2022-11-05T19:12:57.739Z,100733.89
2022-11-05T19:15:26.731Z,100737.98
2022-11-05T19:17:55.399Z,100739.05
2022-11-05T19:20:23.974Z,100740.14
2022-11-05T19:22:52.870Z,100740.73
2022-11-05T19:25:21.352Z,100739.86
2022-11-05T19:27:49.925Z,100742.98
2022-11-05T19:30:18.627Z,100746.28
2022-11-05T19:32:47.210Z,100750.08
2022-11-05T19:35:15.734Z,100754.70
2022-11-05T19:37:44.561Z,100759.68
2022-11-05T19:40:13.463Z,100762.02
2022-11-05T19:42:42.609Z,100764.34
2022-11-05T19:45:38.193Z,100765.69
2022-11-05T19:48:00.797Z,100771.52
2022-11-05T19:50:29.770Z,100773.23
2022-11-05T19:52:58.243Z,100770.55
2022-11-05T19:55:26.756Z,100774.91
2022-11-05T19:57:55.673Z,100774.85
2022-11-05T20:00:24.526Z,100779.52
2022-11-05T20:02:53.241Z,100784.02
2022-11-05T20:05:22.043Z,100785.67
2022-11-05T20:07:52.979Z,100789.35
2022-11-05T20:10:22.538Z,100792.43
2022-11-05T20:12:51.258Z,100794.14
2022-11-05T20:15:20.387Z,100796.28
2022-11-05T20:17:54.378Z,100796.98
2022-11-05T20:20:22.085Z,100795.17
2022-11-05T20:22:52.930Z,100802.79
2022-11-05T20:25:21.484Z,100801.69
2022-11-05T20:27:49.925Z,100801.77
2022-11-05T20:30:19.420Z,100803.75
2022-11-05T20:32:48.951Z,100808.92
2022-11-05T20:35:18.495Z,100812.51
2022-11-05T20:37:51.210Z,100816.13
2022-11-05T20:40:33.137Z,100817.03
2022-11-05T20:43:02.358Z,100823.10
2022-11-05T20:45:30.836Z,100827.73
2022-11-05T20:47:59.503Z,100831.64
2022-11-05T20:50:28.278Z,100836.00
2022-11-05T20:52:56.914Z,100831.27
2022-11-05T20:55:27.966Z,100834.60
2022-11-05T20:57:57.005Z,100834.34
2022-11-05T21:00:25.636Z,100837.83
2022-11-05T21:02:54.351Z,100843.13
2022-11-05T21:05:23.294Z,100845.30
2022-11-05T21:07:51.895Z,100842.52
2022-11-05T21:10:20.587Z,100840.06
2022-11-05T21:12:49.369Z,100841.56
2022-11-05T21:15:20.489Z,100846.66
2022-11-05T21:17:48.998Z,100844.88
2022-11-05T21:20:18.803Z,100846.63
2022-11-05T21:22:48.046Z,100850.14
2022-11-05T21:25:17.064Z,100844.58
2022-11-05T21:27:46.184Z,100838.25
2022-11-05T21:30:15.060Z,100838.72
2022-11-05T21:32:43.830Z,100835.16
2022-11-05T21:35:12.469Z,100839.79
2022-11-05T21:37:40.933Z,100844.70
2022-11-05T21:40:11.862Z,100851.60
2022-11-05T21:42:40.504Z,100852.14
2022-11-05T21:45:10.231Z,100852.46
2022-11-05T21:47:38.704Z,100855.80
2022-11-05T21:50:08.909Z,100854.46
2022-11-05T21:52:56.502Z,100855.66
2022-11-05T21:55:43.789Z,100856.80
2022-11-05T21:58:33.341Z,100852.67
2022-11-05T22:01:02.723Z,100849.38
2022-11-05T22:03:31.345Z,100848.77
2022-11-05T22:06:00.114Z,100851.52
2022-11-05T22:08:28.790Z,100853.53
2022-11-05T22:10:57.206Z,100848.46
2022-11-05T22:13:25.759Z,100846.21
2022-11-05T22:15:57.496Z,100843.56
2022-11-05T22:18:26.061Z,100848.50
2022-11-05T22:20:55.261Z,100850.58
2022-11-05T22:23:25.532Z,100855.02
2022-11-05T22:26:00.609Z,100856.48
2022-11-05T22:28:29.115Z,100860.91
2022-11-05T22:31:00.256Z,100864.29
2022-11-05T22:33:28.752Z,100870.23
2022-11-05T22:35:57.313Z,100876.67
2022-11-05T22:38:32.695Z,100878.15
2022-11-05T22:41:08.086Z,100880.48
2022-11-05T22:43:37.617Z,100887.98
2022-11-05T22:46:08.886Z,100887.73
2022-11-05T22:48:38.180Z,100886.72
2022-11-05T22:51:09.294Z,100884.75
2022-11-05T22:53:38.269Z,100882.43
2022-11-05T22:56:08.899Z,100879.20
2022-11-05T22:58:37.742Z,100878.98
2022-11-05T23:01:07.865Z,100878.86
2022-11-05T23:03:36.750Z,100876.51
2022-11-05T23:06:27.425Z,100873.86
2022-11-05T23:09:14.561Z,100878.39
2022-11-05T23:11:45.748Z,100879.89
2022-11-05T23:14:14.583Z,100884.23
2022-11-05T23:17:01.932Z,100886.14
2022-11-05T23:19:49.624Z,100885.88
2022-11-05T23:22:38.337Z,100887.37
2022-11-05T23:25:10.274Z,100889.67
2022-11-05T23:27:40.638Z,100882.39
2022-11-05T23:30:13.213Z,100887.59
2022-11-05T23:32:41.680Z,100884.55
2022-11-05T23:35:11.017Z,100885.65
2022-11-05T23:37:57.942Z,100879.80
2022-11-05T23:40:28.345Z,100887.30
2022-11-05T23:43:16.024Z,100885.34
2022-11-05T23:46:03.487Z,100885.41
2022-11-05T23:48:33.947Z,100891.89
2022-11-05T23:51:04.588Z,100889.75
2022-11-05T23:53:35.910Z,100894.96
2022-11-05T23:56:07.021Z,100892.85
2022-11-05T23:58:36.255Z,100896.67
